Time;durP1;ratioP1;P1;durP2;ratioP2;P2;SDS_P1;SDS_P2;PMS_P1;PMS_P2;Temp;Humidity;BMP_temperature;BMP_pressure;BME280_temperature;BME280_humidity;BME280_pressure;Samples;Min_cycle;Max_cycle;Signal;HPM_P1;HPM_P2
2023/07/15 00:01:48;;;;;;;6.57;3.50;;;;;;;20.46;100.00;100223.34;5046592;28;20174;-56
2023/07/15 00:04:14;;;;;;;4.97;3.78;;;;;;;20.37;100.00;100208.94;5029245;28;20136;-55
2023/07/15 00:06:40;;;;;;;4.20;3.50;;;;;;;20.10;100.00;100160.38;5034191;28;20040;-56
2023/07/15 00:09:06;;;;;;;7.53;3.88;;;;;;;20.44;100.00;100218.13;5053774;28;20468;-57
2023/07/15 00:11:41;;;;;;;6.03;3.88;;;;;;;20.52;100.00;100230.88;5031775;28;20044;-54
2023/07/15 00:14:18;;;;;;;3.85;3.22;;;;;;;20.27;100.00;100183.06;5022579;28;20025;-55
2023/07/15 00:16:43;;;;;;;4.68;3.58;;;;;;;20.55;100.00;100225.25;5041887;28;20477;-57
2023/07/15 00:19:09;;;;;;;7.60;3.83;;;;;;;20.62;100.00;100251.38;5051935;28;20049;-57
2023/07/15 00:21:35;;;;;;;4.53;3.58;;;;;;;20.63;100.00;100249.53;5041560;28;20091;-56
2023/07/15 00:24:01;;;;;;;5.85;3.88;;;;;;;20.66;100.00;100260.84;5040648;28;20508;-54
2023/07/15 00:26:29;;;;;;;4.55;3.55;;;;;;;20.66;100.00;100250.16;5051633;28;20025;-56
2023/07/15 00:28:55;;;;;;;4.57;3.20;;;;;;;20.19;100.00;100168.50;5031002;28;20091;-60
2023/07/15 00:31:22;;;;;;;5.28;3.05;;;;;;;20.53;100.00;100237.91;5037595;28;20427;-54
2023/07/15 00:33:48;;;;;;;6.72;3.30;;;;;;;20.18;100.00;100180.16;5038746;28;20029;-54
2023/07/15 00:36:14;;;;;;;4.22;3.30;;;;;;;20.17;100.00;100170.44;5037548;28;20130;-56
2023/07/15 00:38:40;;;;;;;6.72;3.05;;;;;;;20.37;100.00;100208.06;5031354;28;20155;-57
2023/07/15 00:41:19;;;;;;;3.35;2.78;;;;;;;20.41;100.00;100218.38;5032670;28;20044;-54
2023/07/15 00:43:58;;;;;;;5.35;2.95;;;;;;;20.54;100.00;100269.03;5019570;28;20138;-58
2023/07/15 00:46:51;;;;;;;5.93;3.15;;;;;;;20.51;100.00;100285.31;5042364;28;20029;-51
2023/07/15 00:49:22;;;;;;;6.85;2.70;;;;;;;19.93;100.00;100183.16;5036011;28;20091;-56
2023/07/15 00:52:09;;;;;;;2.90;2.50;;;;;;;20.37;100.00;100267.75;5038867;28;20035;-56
2023/07/15 00:54:44;;;;;;;5.93;3.05;;;;;;;20.27;100.00;100272.13;5039986;28;20045;-59
2023/07/15 00:57:10;;;;;;;3.92;2.65;;;;;;;20.11;100.00;100271.66;5043880;28;20037;-57
2023/07/15 00:59:35;;;;;;;5.45;3.63;;;;;;;20.32;100.00;100285.94;5016866;28;20028;-57
2023/07/15 01:02:01;;;;;;;5.88;3.60;;;;;;;20.35;100.00;100296.41;5044165;28;20056;-56
2023/07/15 01:04:26;;;;;;;6.93;3.40;;;;;;;20.33;100.00;100284.13;5041617;28;20080;-54
2023/07/15 01:06:53;;;;;;;11.38;8.00;;;;;;;20.21;100.00;100262.75;5041785;28;20499;-57
2023/07/15 01:09:19;;;;;;;5.07;3.35;;;;;;;20.19;100.00;100271.88;5050052;28;20069;-56
2023/07/15 01:11:45;;;;;;;6.47;4.65;;;;;;;20.14;100.00;100290.06;5052119;28;20037;-58
2023/07/15 01:14:12;;;;;;;3.88;2.78;;;;;;;20.07;100.00;100273.72;5028798;28;20101;-55
2023/07/15 01:16:38;;;;;;;3.42;3.03;;;;;;;19.53;100.00;100195.31;5027355;28;20034;-54
2023/07/15 01:19:03;;;;;;;5.10;3.08;;;;;;;19.88;100.00;100277.94;5034597;28;20046;-55
2023/07/15 01:21:33;;;;;;;9.20;4.05;;;;;;;19.77;100.00;100265.47;5034069;28;20378;-57
2023/07/15 01:23:58;;;;;;;5.28;2.78;;;;;;;19.51;100.00;100245.31;5016448;28;20141;-58
2023/07/15 01:26:24;;;;;;;4.32;2.60;;;;;;;19.60;100.00;100263.28;5052068;28;20061;-57
2023/07/15 01:28:49;;;;;;;9.00;3.15;;;;;;;19.55;100.00;100266.31;5054035;28;20037;-58
2023/07/15 01:31:14;;;;;;;7.65;2.95;;;;;;;19.52;100.00;100253.22;5038472;28;20041;-57
2023/07/15 01:33:40;;;;;;;5.07;2.65;;;;;;;19.47;100.00;100241.16;5052082;28;20545;-53
2023/07/15 01:36:06;;;;;;;3.00;2.47;;;;;;;19.49;100.00;100249.94;5053876;28;20036;-54
2023/07/15 01:38:31;;;;;;;6.43;3.38;;;;;;;19.47;100.00;100257.19;5048641;28;20052;-51
2023/07/15 01:40:57;;;;;;;4.40;2.53;;;;;;;19.48;100.00;100250.88;5050524;28;20048;-58
2023/07/15 01:43:22;;;;;;;4.68;2.65;;;;;;;19.53;100.00;100262.91;5053329;28;20117;-54
2023/07/15 01:45:47;;;;;;;6.00;2.38;;;;;;;19.09;100.00;100172.94;5053597;28;20342;-56
2023/07/15 01:48:13;;;;;;;4.80;2.50;;;;;;;19.36;100.00;100190.44;5039161;28;20077;-55
2023/07/15 01:50:39;;;;;;;5.30;2.53;;;;;;;19.79;100.00;100265.34;5033542;28;20040;-52
2023/07/15 01:53:05;;;;;;;4.25;2.55;;;;;;;19.44;100.00;100175.53;5036213;28;20037;-58
2023/07/15 01:55:30;;;;;;;6.70;2.10;;;;;;;19.73;100.00;100205.25;5015697;28;20051;-57
2023/07/15 01:57:55;;;;;;;4.78;2.50;;;;;;;20.17;100.00;100265.78;5033752;28;20091;-59
2023/07/15 02:00:21;;;;;;;3.97;2.22;;;;;;;20.25;100.00;100265.19;5033412;28;20465;-56
2023/07/15 02:02:46;;;;;;;6.72;2.28;;;;;;;20.21;100.00;100246.72;5033432;28;20033;-56
2023/07/15 02:05:12;;;;;;;3.80;2.42;;;;;;;20.30;100.00;100245.16;5038975;28;20536;-56
2023/07/15 02:07:37;;;;;;;3.55;1.90;;;;;;;19.92;100.00;100180.59;5053362;28;20032;-53
2023/07/15 02:10:03;;;;;;;3.60;1.73;;;;;;;19.94;100.00;100190.16;5053096;28;20037;-57
2023/07/15 02:12:28;;;;;;;3.67;2.22;;;;;;;20.33;100.00;100260.94;5052179;28;20048;-59
2023/07/15 02:14:54;;;;;;;2.97;1.67;;;;;;;19.90;100.00;100190.56;5052140;28;20480;-56
2023/07/15 02:17:22;;;;;;;4.15;2.40;;;;;;;20.28;100.00;100259.63;5032978;28;20064;-59
2023/07/15 02:19:51;;;;;;;5.78;2.20;;;;;;;20.27;100.00;100260.56;5032930;28;20046;-54
2023/07/15 02:22:17;;;;;;;3.90;2.28;;;;;;;20.10;100.00;100238.72;5050061;28;20040;-56
2023/07/15 02:24:42;;;;;;;4.95;2.33;;;;;;;19.78;100.00;100195.06;5052637;28;20044;-54
2023/07/15 02:27:07;;;;;;;3.78;2.20;;;;;;;20.14;100.00;100252.66;5053050;28;20033;-55
2023/07/15 02:29:33;;;;;;;2.95;1.80;;;;;;;20.02;100.00;100234.97;5050390;28;20106;-55
2023/07/15 02:31:58;;;;;;;4.28;1.90;;;;;;;20.08;100.00;100255.88;5014993;28;20168;-55
2023/07/15 02:34:24;;;;;;;3.97;2.00;;;;;;;20.00;100.00;100240.44;5032714;28;20096;-56
2023/07/15 02:36:49;;;;;;;3.50;1.92;;;;;;;20.06;100.00;100236.41;5039922;28;20134;-57
2023/07/15 02:39:14;;;;;;;2.50;1.67;;;;;;;19.73;100.00;100178.53;5052034;28;20033;-54
2023/07/15 02:41:40;;;;;;;4.15;2.17;;;;;;;20.14;100.00;100253.53;5046624;28;20095;-56
2023/07/15 02:44:05;;;;;;;4.85;2.10;;;;;;;20.07;100.00;100244.31;5032782;28;20044;-58
2023/07/15 02:46:31;;;;;;;4.07;2.17;;;;;;;19.78;100.00;100203.09;5045087;28;20052;-54
2023/07/15 02:48:56;;;;;;;3.45;2.05;;;;;;;20.14;100.00;100248.16;5052548;28;20037;-58
2023/07/15 02:51:23;;;;;;;2.47;1.83;;;;;;;19.74;100.00;100184.75;5052305;28;20439;-58
2023/07/15 02:53:48;;;;;;;4.75;2.50;;;;;;;20.19;100.00;100250.50;5051417;28;20037;-55
2023/07/15 02:56:13;;;;;;;3.70;2.38;;;;;;;20.20;100.00;100247.69;5051079;28;20095;-59
2023/07/15 02:58:40;;;;;;;5.88;2.50;;;;;;;20.11;100.00;100236.91;5033021;28;20033;-56
2023/07/15 03:01:07;;;;;;;3.60;2.10;;;;;;;19.73;100.00;100172.38;5023023;28;20061;-55
2023/07/15 03:03:32;;;;;;;3.20;2.38;;;;;;;19.80;100.00;100197.59;5052260;28;20049;-58
2023/07/15 03:05:58;;;;;;;2.78;2.22;;;;;;;20.13;100.00;100248.31;5052096;28;20035;-55
2023/07/15 03:08:23;;;;;;;3.08;2.10;;;;;;;19.71;100.00;100187.66;5052154;28;20036;-55
2023/07/15 03:10:49;;;;;;;7.20;2.42;;;;;;;20.07;100.00;100246.13;5050914;28;20116;-54
2023/07/15 03:13:15;;;;;;;6.32;2.38;;;;;;;20.02;100.00;100237.66;5051220;28;20045;-54
2023/07/15 03:15:40;;;;;;;3.05;2.42;;;;;;;20.15;100.00;100259.72;5049812;28;20753;-52
2023/07/15 03:18:05;;;;;;;3.38;2.28;;;;;;;20.17;100.00;100244.41;5046162;28;20045;-55
2023/07/15 03:20:31;;;;;;;4.20;2.47;;;;;;;19.81;100.00;100175.28;5031957;28;20052;-56
2023/07/15 03:22:57;;;;;;;2.88;2.67;;;;;;;20.22;100.00;100244.91;5032028;28;20037;-58
2023/07/15 03:25:23;;;;;;;3.40;2.60;;;;;;;20.27;100.00;100247.22;5032173;28;20033;-56
2023/07/15 03:27:49;;;;;;;3.35;2.65;;;;;;;20.20;100.00;100231.66;5031907;28;20033;-57
2023/07/15 03:30:15;;;;;;;5.35;2.38;;;;;;;20.32;100.00;100253.88;5032190;28;20041;-56
2023/07/15 03:32:41;;;;;;;5.15;2.63;;;;;;;19.88;100.00;100189.81;5044152;28;20569;-58
2023/07/15 03:35:08;;;;;;;5.35;2.80;;;;;;;20.15;100.00;100230.31;5051249;28;20041;-57
2023/07/15 03:37:34;;;;;;;3.90;2.90;;;;;;;19.77;100.00;100166.66;5056018;28;20033;-59
2023/07/15 03:40:00;;;;;;;5.15;3.00;;;;;;;19.86;100.00;100189.09;5055059;28;20032;-57
2023/07/15 03:42:26;;;;;;;5.20;2.80;;;;;;;19.74;100.00;100174.91;5056201;28;20464;-55
2023/07/15 03:44:52;;;;;;;3.65;2.83;;;;;;;19.88;100.00;100197.81;5055260;28;20045;-54
2023/07/15 03:47:18;;;;;;;5.07;2.65;;;;;;;20.19;100.00;100250.50;5056078;28;20033;-54
2023/07/15 03:49:44;;;;;;;4.68;2.90;;;;;;;20.17;100.00;100239.06;5054346;28;20373;-56
2023/07/15 03:52:10;;;;;;;3.97;2.63;;;;;;;19.78;100.00;100183.53;5055786;28;20563;-56
2023/07/15 03:54:35;;;;;;;4.63;3.10;;;;;;;19.73;100.00;100175.06;5054010;28;20045;-57
2023/07/15 03:57:00;;;;;;;4.13;2.63;;;;;;;20.17;100.00;100249.75;5055960;28;20388;-56
2023/07/15 03:59:26;;;;;;;2.92;2.40;;;;;;;20.02;100.00;100224.28;5055715;28;20476;-59
2023/07/15 04:01:51;;;;;;;5.78;2.65;;;;;;;20.21;100.00;100257.41;5054913;28;20033;-58
2023/07/15 04:04:16;;;;;;;4.75;2.70;;;;;;;20.25;100.00;100266.06;5056048;28;20029;-56
2023/07/15 04:06:43;;;;;;;3.42;2.22;;;;;;;20.15;100.00;100249.03;5055634;28;20039;-55
2023/07/15 04:09:11;;;;;;;4.78;2.40;;;;;;;20.12;100.00;100239.44;5043946;28;20470;-56
2023/07/15 04:11:37;;;;;;;2.88;2.00;;;;;;;19.84;100.00;100191.91;5035861;28;20029;-54
2023/07/15 04:14:02;;;;;;;3.05;2.28;;;;;;;19.91;100.00;100208.25;5035712;28;20040;-56
2023/07/15 04:16:29;;;;;;;2.78;2.03;;;;;;;19.88;100.00;100200.50;5038197;28;20111;-57
2023/07/15 04:18:54;;;;;;;3.40;1.95;;;;;;;19.93;100.00;100207.19;5036466;28;20045;-58
2023/07/15 04:21:20;;;;;;;3.05;1.95;;;;;;;19.97;100.00;100205.09;5053688;28;20511;-61
2023/07/15 04:23:45;;;;;;;2.58;2.15;;;;;;;19.99;100.00;100212.00;5053607;28;20041;-58
2023/07/15 04:26:11;;;;;;;4.25;2.20;;;;;;;20.30;100.00;100274.53;5035315;28;20037;-56
2023/07/15 04:28:37;;;;;;;6.60;2.20;;;;;;;20.08;100.00;100235.31;5035489;28;20040;-52
2023/07/15 04:31:02;;;;;;;4.82;1.85;;;;;;;20.43;100.00;100299.28;5042270;28;20116;-55
2023/07/15 04:33:28;;;;;;;2.97;1.52;;;;;;;20.38;100.00;100304.16;5055189;28;20116;-56
2023/07/15 04:35:54;;;;;;;5.50;2.55;;;;;;;19.94;100.00;100234.72;5054184;28;20029;-57
2023/07/15 04:38:22;;;;;;;5.15;2.10;;;;;;;20.04;100.00;100257.94;5055190;28;20021;-57
2023/07/15 04:40:47;;;;;;;2.15;1.50;;;;;;;19.92;100.00;100250.88;5037608;28;20044;-56
2023/07/15 04:43:12;;;;;;;8.93;1.98;;;;;;;20.27;100.00;100308.69;5053947;28;20046;-55
2023/07/15 04:45:38;;;;;;;4.38;1.98;;;;;;;20.25;100.00;100303.47;5054960;28;20115;-56
2023/07/15 04:48:03;;;;;;;4.10;1.45;;;;;;;20.23;100.00;100312.56;5035783;28;20116;-57
2023/07/15 04:50:29;;;;;;;4.90;1.60;;;;;;;20.23;100.00;100315.25;5055219;28;20036;-58
2023/07/15 04:52:54;;;;;;;4.05;2.08;;;;;;;20.14;100.00;100298.09;5046090;28;20041;-57
2023/07/15 04:55:20;;;;;;;2.88;1.60;;;;;;;20.14;100.00;100304.28;5050122;28;20041;-55
2023/07/15 04:57:45;;;;;;;4.13;1.50;;;;;;;19.96;100.00;100279.06;5049007;28;20056;-56
2023/07/15 05:00:11;;;;;;;5.95;2.13;;;;;;;19.79;100.00;100257.34;5040498;28;20041;-55
2023/07/15 05:02:39;;;;;;;5.55;1.80;;;;;;;20.02;100.00;100309.78;5036759;28;20037;-56
2023/07/15 05:05:05;;;;;;;4.90;1.50;;;;;;;19.99;100.00;100318.88;5053783;28;20033;-60
2023/07/15 05:07:32;;;;;;;3.92;1.48;;;;;;;19.95;100.00;100306.75;5052145;28;20498;-57
2023/07/15 05:09:57;;;;;;;3.60;1.73;;;;;;;19.97;100.00;100301.25;5053839;28;20040;-54
2023/07/15 05:12:24;;;;;;;2.75;1.38;;;;;;;19.58;100.00;100241.19;5036490;28;20029;-56
2023/07/15 05:14:49;;;;;;;5.38;2.00;;;;;;;19.53;100.00;100230.88;5036589;28;20036;-58
2023/07/15 05:17:15;;;;;;;4.95;1.60;;;;;;;20.01;100.00;100306.25;5034216;28;20395;-55
2023/07/15 05:19:40;;;;;;;5.65;2.00;;;;;;;19.98;100.00;100298.50;5034305;28;20469;-56
2023/07/15 05:22:06;;;;;;;6.28;1.83;;;;;;;20.05;100.00;100312.22;5033180;28;20556;-57
2023/07/15 05:24:32;;;;;;;4.57;1.85;;;;;;;19.63;100.00;100244.34;5034132;28;20078;-59
2023/07/15 05:26:57;;;;;;;4.30;1.70;;;;;;;19.67;100.00;100249.31;5035145;28;20041;-57
2023/07/15 05:29:23;;;;;;;7.25;1.85;;;;;;;20.04;100.00;100311.34;5054152;28;20465;-58
2023/07/15 05:31:48;;;;;;;3.03;1.60;;;;;;;19.70;100.00;100263.41;5045150;28;20041;-58
2023/07/15 05:34:14;;;;;;;4.07;1.90;;;;;;;20.11;100.00;100322.41;5016409;28;20029;-54
2023/07/15 05:36:39;;;;;;;5.15;1.88;;;;;;;19.73;100.00;100263.16;5034119;28;20100;-56
2023/07/15 05:39:04;;;;;;;5.25;1.70;;;;;;;20.11;100.00;100322.41;5016366;28;20396;-57
2023/07/15 05:41:30;;;;;;;4.60;2.05;;;;;;;20.06;100.00;100314.75;5033392;28;20033;-56
2023/07/15 05:43:55;;;;;;;4.45;2.10;;;;;;;20.17;100.00;100324.56;5034650;28;20448;-54
2023/07/15 05:46:20;;;;;;;7.35;2.78;;;;;;;20.23;100.00;100332.09;5044237;28;20048;-57
2023/07/15 05:48:46;;;;;;;6.30;2.65;;;;;;;20.25;100.00;100334.66;5033609;28;20075;-58
2023/07/15 05:51:11;;;;;;;5.15;2.10;;;;;;;20.20;100.00;100332.34;5033827;28;20025;-56
2023/07/15 05:53:36;;;;;;;4.28;2.10;;;;;;;20.23;100.00;100334.75;5032884;28;20036;-57
2023/07/15 05:56:02;;;;;;;3.88;2.15;;;;;;;20.19;100.00;100355.56;5033546;28;20035;-61
2023/07/15 05:58:27;;;;;;;7.40;2.72;;;;;;;19.83;100.00;100277.47;5015513;28;20037;-56
2023/07/15 06:00:52;;;;;;;5.38;2.13;;;;;;;19.86;100.00;100278.09;5033448;28;20057;-57
2023/07/15 06:03:18;;;;;;;5.00;2.10;;;;;;;20.26;100.00;100358.59;5038318;28;20037;-56
2023/07/15 06:05:44;;;;;;;4.40;1.88;;;;;;;19.84;100.00;100277.38;5051871;28;20044;-54
2023/07/15 06:08:09;;;;;;;4.55;2.25;;;;;;;20.23;100.00;100341.97;5053259;28;20395;-58
2023/07/15 06:10:34;;;;;;;6.18;2.72;;;;;;;19.91;100.00;100289.25;5050812;28;20035;-57
2023/07/15 06:13:00;;;;;;;3.53;2.20;;;;;;;19.90;100.00;100286.72;5035311;28;20041;-56
2023/07/15 06:15:26;;;;;;;6.85;2.22;;;;;;;20.37;100.00;100353.28;5053167;28;20048;-58
2023/07/15 06:17:51;;;;;;;5.80;2.25;;;;;;;19.99;100.00;100280.66;5034327;28;20036;-56
2023/07/15 06:20:18;;;;;;;6.95;2.30;;;;;;;20.00;100.00;100280.50;5053325;28;20106;-56
2023/07/15 06:22:44;;;;;;;5.35;1.95;;;;;;;20.51;100.00;100341.47;5053151;28;20215;-58
2023/07/15 06:25:11;;;;;;;3.80;2.10;;;;;;;20.27;100.00;100280.13;5047657;28;20159;-57
2023/07/15 06:27:37;;;;;;;4.88;2.20;;;;;;;20.51;100.00;100283.50;5033225;28;20366;-56
2023/07/15 06:30:03;;;;;;;6.75;2.40;;;;;;;21.09;100.00;100335.72;5015355;28;20044;-55
2023/07/15 06:32:29;;;;;;;4.75;1.85;;;;;;;20.86;100.00;100283.25;5032805;28;20034;-57
2023/07/15 06:34:54;;;;;;;5.80;2.35;;;;;;;21.36;100.00;100361.13;5026073;28;20064;-58
2023/07/15 06:37:19;;;;;;;5.82;1.80;;;;;;;21.34;100.00;100349.72;5052855;28;20061;-56
2023/07/15 06:39:45;;;;;;;6.13;2.22;;;;;;;21.32;100.00;100328.41;5051142;28;20029;-61
2023/07/15 06:42:10;;;;;;;3.83;2.05;;;;;;;21.69;100.00;100355.56;5051956;28;20495;-56
2023/07/15 06:44:35;;;;;;;2.38;1.50;;;;;;;21.36;100.00;100295.06;5052620;28;20487;-56
2023/07/15 06:47:01;;;;;;;5.43;2.00;;;;;;;21.83;100.00;100347.22;5042954;28;20030;-56
2023/07/15 06:49:26;;;;;;;5.93;2.15;;;;;;;22.04;100.00;100349.84;5032971;28;20037;-56
2023/07/15 06:51:51;;;;;;;5.97;2.42;;;;;;;22.20;100.00;100360.94;5042852;28;20043;-55
2023/07/15 06:54:17;;;;;;;5.13;2.10;;;;;;;22.14;100.00;100353.44;5052278;28;20037;-57
2023/07/15 06:56:42;;;;;;;4.30;1.80;;;;;;;21.76;100.00;100295.97;5052381;28;20033;-56
2023/07/15 06:59:08;;;;;;;6.90;2.70;;;;;;;22.00;100.00;100353.81;5051179;28;20040;-57
2023/07/15 07:01:33;;;;;;;7.43;2.33;;;;;;;21.76;100.00;100338.00;5019375;28;20041;-55
2023/07/15 07:03:58;;;;;;;3.92;1.80;;;;;;;21.67;100.00;100299.47;5032260;28;20113;-57
2023/07/15 07:06:25;;;;;;;3.15;1.73;;;;;;;22.15;100.00;100356.00;5035666;28;20635;-57
2023/07/15 07:08:50;;;;;;;5.15;1.70;;;;;;;21.87;100.00;100305.75;5038340;28;20033;-54
2023/07/15 07:11:16;;;;;;;5.50;1.73;;;;;;;22.24;100.00;100351.66;5044102;28;20053;-58
2023/07/15 07:13:41;;;;;;;4.65;1.80;;;;;;;22.36;100.00;100369.31;5048513;28;20029;-57
2023/07/15 07:16:07;;;;;;;1.85;1.25;;;;;;;22.12;100.00;100321.41;5052317;28;20112;-56
2023/07/15 07:18:32;;;;;;;6.28;2.38;;;;;;;22.06;100.00;100297.00;5034110;28;20059;-59
2023/07/15 07:20:58;;;;;;;4.00;1.90;;;;;;;22.16;100.00;100325.50;5039105;28;20041;-56
2023/07/15 07:23:24;;;;;;;3.08;1.50;;;;;;;22.19;100.00;100292.22;5042205;28;20496;-56
2023/07/15 07:25:50;;;;;;;3.75;1.80;;;;;;;22.78;100.00;100370.03;5050092;28;20041;-58
2023/07/15 07:28:15;;;;;;;4.32;1.75;;;;;;;22.45;100.00;100296.09;5051830;28;20083;-59
2023/07/15 07:30:41;;;;;;;5.63;1.95;;;;;;;22.59;100.00;100311.78;5051993;28;20124;-57
2023/07/15 07:33:06;;;;;;;3.00;1.95;;;;;;;23.21;100.00;100383.06;5045834;28;20117;-58
2023/07/15 07:35:32;;;;;;;5.35;1.92;;;;;;;23.00;100.00;100309.91;5041495;28;20041;-54
2023/07/15 07:37:57;;;;;;;1.35;1.20;;;;;;;23.42;100.00;100359.63;5052098;28;20137;-56
2023/07/15 07:40:22;;;;;;;4.35;1.50;;;;;;;23.20;100.00;100325.84;5051778;28;20040;-57
2023/07/15 07:42:48;;;;;;;2.28;1.20;;;;;;;23.42;100.00;100378.44;5050878;28;20044;-56
2023/07/15 07:45:14;;;;;;;2.95;1.25;;;;;;;23.46;100.00;100393.28;5051810;28;20075;-59
2023/07/15 07:47:40;;;;;;;2.58;1.73;;;;;;;23.70;100.00;100390.16;5051891;28;20090;-58
2023/07/15 07:50:06;;;;;;;3.00;1.25;;;;;;;23.82;100.00;100376.38;5051153;28;20442;-57
2023/07/15 07:52:31;;;;;;;3.20;1.55;;;;;;;23.64;100.00;100335.16;5050665;28;20527;-55
2023/07/15 07:54:57;;;;;;;3.75;1.40;;;;;;;24.06;100.00;100411.69;5033941;28;20048;-56
2023/07/15 07:57:22;;;;;;;3.80;1.65;;;;;;;24.03;100.00;100409.31;5049691;28;20039;-56
2023/07/15 07:59:47;;;;;;;2.65;1.27;;;;;;;24.15;100.00;100404.63;5039570;28;20037;-58
2023/07/15 08:02:13;;;;;;;2.65;1.50;;;;;;;24.30;100.00;100418.44;5051529;28;20515;-55
2023/07/15 08:04:38;;;;;;;3.92;2.10;;;;;;;24.40;100.00;100432.72;5051888;28;20033;-54
2023/07/15 08:07:03;;;;;;;4.38;1.85;;;;;;;24.04;100.00;100445.09;5051927;28;20439;-56
2023/07/15 08:09:29;;;;;;;3.53;1.40;;;;;;;23.57;100.00;100370.78;5052030;28;20498;-53
2023/07/15 08:11:54;;;;;;;2.15;1.65;;;;;;;23.72;100.00;100375.56;5051950;28;20488;-57
2023/07/15 08:14:19;;;;;;;2.08;1.33;;;;;;;24.12;100.00;100431.81;5043403;28;20060;-57
2023/07/15 08:16:45;;;;;;;2.35;1.58;;;;;;;24.06;100.00;100422.47;5031743;28;20072;-57
2023/07/15 08:19:12;;;;;;;4.63;1.30;;;;;;;24.00;100.00;100368.41;5031636;28;20045;-57
2023/07/15 08:21:38;;;;;;;3.05;1.73;;;;;;;24.75;100.00;100419.34;5033034;28;20038;-54
2023/07/15 08:24:03;;;;;;;2.13;1.80;;;;;;;25.34;100.00;100439.56;5046508;28;20041;-56
2023/07/15 08:26:29;;;;;;;2.45;1.15;;;;;;;25.50;100.00;100453.22;5053560;28;20040;-59
2023/07/15 08:28:58;;;;;;;1.85;1.08;;;;;;;25.12;100.00;100405.84;5054312;28;20040;-61
2023/07/15 08:31:24;;;;;;;2.28;1.30;;;;;;;24.81;100.00;100389.19;5053888;28;20040;-56
2023/07/15 08:33:49;;;;;;;1.80;1.05;;;;;;;24.91;100.00;100438.44;5051896;28;20033;-56
2023/07/15 08:36:14;;;;;;;2.40;1.20;;;;;;;24.46;100.00;100403.38;5033616;28;20078;-58
2023/07/15 08:38:40;;;;;;;2.30;1.15;;;;;;;24.56;100.00;100408.72;5053459;28;20407;-54
2023/07/15 08:41:05;;;;;;;2.40;1.52;;;;;;;24.92;100.00;100442.84;5053943;28;20091;-55
2023/07/15 08:43:31;;;;;;;2.92;1.23;;;;;;;24.82;100.00;100444.72;5037097;28;20048;-57
2023/07/15 08:46:01;;;;;;;1.50;1.40;;;;;;;24.88;100.00;100464.81;5054869;28;20069;-56
2023/07/15 08:48:28;;;;;;;5.82;2.30;;;;;;;25.11;100.00;100466.94;5033238;28;20044;-56
2023/07/15 08:50:56;;;;;;;3.78;1.80;;;;;;;24.99;100.00;100472.69;5055045;28;20035;-58
2023/07/15 08:53:26;;;;;;;2.42;1.48;;;;;;;24.76;100.00;100417.53;5037049;28;20036;-60
2023/07/15 08:55:54;;;;;;;2.58;1.55;;;;;;;24.86;100.00;100473.06;5054735;28;20127;-56
2023/07/15 08:58:20;;;;;;;5.28;1.63;;;;;;;24.73;100.00;100461.75;5036643;28;20033;-56
2023/07/15 09:00:45;;;;;;;3.85;1.73;;;;;;;24.75;100.00;100466.97;5054731;28;20112;-57
2023/07/15 09:03:10;;;;;;;3.08;1.58;;;;;;;24.77;100.00;100468.53;5053664;28;20492;-57
2023/07/15 09:05:36;;;;;;;3.00;1.73;;;;;;;24.97;100.00;100466.59;5051425;28;20455;-60
2023/07/15 09:08:09;;;;;;;4.30;2.42;;;;;;;24.69;100.00;100403.84;5040773;28;20464;-58
2023/07/15 09:10:34;;;;;;;2.17;1.48;;;;;;;24.80;100.00;100409.03;5038173;28;20374;-57
2023/07/15 09:13:00;;;;;;;1.73;1.13;;;;;;;25.11;100.00;100479.56;5038504;28;20124;-59
2023/07/15 09:15:25;;;;;;;2.78;1.40;;;;;;;24.69;100.00;100405.69;5021386;28;20064;-59
2023/07/15 09:17:57;;;;;;;1.45;1.10;;;;;;;25.27;100.00;100471.66;5034531;28;20033;-61
2023/07/15 09:20:24;;;;;;;2.47;1.60;;;;;;;25.21;100.00;100445.34;5034317;28;20411;-59
2023/07/15 09:22:56;;;;;;;2.13;1.25;;;;;;;25.49;100.00;100482.03;5034659;28;20030;-58
2023/07/15 09:25:22;;;;;;;2.13;1.08;;;;;;;25.76;100.00;100483.78;5016262;28;20501;-54
2023/07/15 09:27:48;;;;;;;1.98;1.33;;;;;;;25.73;100.00;100484.09;5037029;28;20480;-55
2023/07/15 09:30:14;;;;;;;2.30;1.20;;;;;;;25.27;100.00;100409.72;5035441;28;20040;-58
2023/07/15 09:32:40;;;;;;;4.82;1.20;;;;;;;25.39;100.00;100416.56;5053634;28;20040;-60
2023/07/15 09:35:06;;;;;;;1.58;1.05;;;;;;;25.89;100.00;100434.88;5050841;28;20040;-60
2023/07/15 09:37:32;;;;;;;2.30;1.13;;;;;;;26.68;100.00;100478.69;5047476;28;20037;-59
2023/07/15 09:40:04;;;;;;;2.33;1.40;;;;;;;26.72;100.00;100485.47;5047414;28;20037;-60
2023/07/15 09:42:29;;;;;;;1.90;1.20;;;;;;;26.33;100.00;100457.28;5053363;28;20060;-59
2023/07/15 09:44:55;;;;;;;2.22;1.25;;;;;;;26.01;100.00;100469.50;5034896;28;20497;-58
2023/07/15 09:47:20;;;;;;;2.75;1.45;;;;;;;25.35;100.00;100417.00;5050663;28;20083;-58
2023/07/15 09:49:46;;;;;;;2.03;1.50;;;;;;;25.67;100.00;100474.78;5036237;28;20045;-59
2023/07/15 09:52:15;;;;;;;3.20;1.08;;;;;;;25.23;100.00;100407.47;5036231;28;20077;-60
2023/07/15 09:54:42;;;;;;;2.15;1.10;;;;;;;25.48;100.00;100487.56;5051784;28;20374;-54
2023/07/15 09:57:15;;;;;;;5.07;1.50;;;;;;;24.93;100.00;100446.34;5034658;28;20029;-58
2023/07/15 09:59:45;;;;;;;2.60;1.25;;;;;;;24.71;100.00;100452.97;5046391;28;20031;-60
2023/07/15 10:02:18;;;;;;;1.30;1.08;;;;;;;24.78;100.00;100478.28;5052785;28;20037;-59
2023/07/15 10:04:45;;;;;;;3.88;1.60;;;;;;;24.39;100.00;100391.53;5033118;28;20048;-57
2023/07/15 10:07:11;;;;;;;2.13;1.55;;;;;;;25.00;100.00;100480.63;5033264;28;20030;-60
2023/07/15 10:09:37;;;;;;;1.77;1.13;;;;;;;25.69;100.00;100480.84;5033505;28;20057;-61
2023/07/15 10:12:04;;;;;;;1.58;1.25;;;;;;;25.87;100.00;100424.22;5015875;28;20068;-57
2023/07/15 10:14:30;;;;;;;3.97;1.30;;;;;;;26.71;100.00;100471.13;5033417;28;20384;-59
2023/07/15 10:17:09;;;;;;;3.97;1.75;;;;;;;27.03;100.00;100496.63;5025647;28;20040;-60
2023/07/15 10:19:43;;;;;;;3.05;1.35;;;;;;;26.86;100.00;100435.44;5041321;28;20056;-59
2023/07/15 10:22:12;;;;;;;2.50;1.17;;;;;;;27.12;100.00;100437.03;5053252;28;20060;-55
2023/07/15 10:24:53;;;;;;;2.93;1.50;;;;;;;27.71;100.00;100433.25;5052903;28;20045;-57
2023/07/15 10:27:18;;;;;;;1.77;1.15;;;;;;;28.89;100.00;100465.00;5053033;28;20456;-56
2023/07/15 10:29:44;;;;;;;2.85;1.60;;;;;;;29.08;100.00;100452.88;5030251;28;20037;-60
2023/07/15 10:32:14;;;;;;;3.95;1.63;;;;;;;29.36;100.00;100487.50;5035875;28;20033;-58
2023/07/15 10:34:41;;;;;;;;;;;;;;;29.06;100.00;100487.44;5046381;28;20040;-58
2023/07/15 10:37:09;;;;;;;2.65;1.42;;;;;;;28.81;100.00;100482.13;5043649;28;20008;-51
2023/07/15 10:39:34;;;;;;;3.35;2.10;;;;;;;28.23;100.00;100420.19;5014980;28;20457;-58
2023/07/15 10:42:13;;;;;;;2.55;1.23;;;;;;;27.75;100.00;100417.53;5029246;28;20049;-58
2023/07/15 10:44:46;;;;;;;3.47;1.63;;;;;;;28.20;100.00;100414.25;5037459;28;20120;-59
2023/07/15 10:47:15;;;;;;;3.75;1.80;;;;;;;28.99;100.00;100457.50;5042385;28;20040;-59
2023/07/15 10:49:41;;;;;;;4.13;1.60;;;;;;;28.50;100.00;100413.50;5022957;28;20033;-59
2023/07/15 10:52:07;;;;;;;2.03;1.17;;;;;;;28.72;100.00;100449.84;5043401;28;20396;-57
2023/07/15 10:54:36;;;;;;;3.05;1.70;;;;;;;29.16;100.00;100385.91;5052431;28;20091;-59
2023/07/15 10:57:08;;;;;;;2.90;1.38;;;;;;;30.28;100.00;100458.41;5034421;28;20029;-60
2023/07/15 10:59:36;;;;;;;10.55;1.73;;;;;;;30.57;100.00;100396.00;5037036;28;20044;-59
2023/07/15 11:02:02;;;;;;;3.20;1.30;;;;;;;30.77;100.00;100398.94;5033182;28;20052;-60
2023/07/15 11:04:27;;;;;;;5.65;1.63;;;;;;;30.97;100.00;100449.00;5024643;28;20477;-59
2023/07/15 11:07:00;;;;;;;2.15;1.58;;;;;;;30.81;100.00;100439.16;5036709;28;20040;-58
2023/07/15 11:09:25;;;;;;;3.35;1.45;;;;;;;30.98;100.00;100374.56;5051482;28;20111;-58
2023/07/15 11:11:51;;;;;;;4.95;1.50;;;;;;;31.06;100.00;100391.59;5021532;28;20119;-60
2023/07/15 11:14:24;;;;;;;2.88;2.05;;;;;;;31.33;100.00;100433.50;5040140;28;20448;-58